createdAt,value
2018-09-18T00:41:13.063Z,2.27
2018-09-18T00:43:42.540Z,2.50
2018-09-18T00:53:42.878Z,2.23
2018-09-18T00:56:15.136Z,2.37
2018-09-18T00:58:45.261Z,2.33
2018-09-18T01:01:15.407Z,2.10
2018-09-18T01:21:59.072Z,2.30
2018-09-18T01:25:09.430Z,1.83
2018-09-18T01:27:38.355Z,2.50
2018-09-18T01:30:12.014Z,2.13
2018-09-18T01:35:54.743Z,2.30
2018-09-18T01:38:24.390Z,2.20
2018-09-18T01:41:00.366Z,2.13
2018-09-18T01:46:40.116Z,2.00
2018-09-18T01:49:10.255Z,2.10
2018-09-18T01:51:48.557Z,2.10
2018-09-18T01:54:17.707Z,2.17
2018-09-18T01:56:46.945Z,2.00
2018-09-18T01:59:16.300Z,1.90
2018-09-18T03:14:36.511Z,2.50
2018-09-18T05:31:25.044Z,1.90
2018-09-18T05:37:24.317Z,2.23
2018-09-18T05:40:01.020Z,2.60
2018-09-18T05:42:30.432Z,2.30
2018-09-18T05:45:00.993Z,2.40
2018-09-18T05:47:43.461Z,2.73
2018-09-18T05:50:15.422Z,2.97
2018-09-18T05:52:43.587Z,3.20
2018-09-18T05:55:11.803Z,3.00
2018-09-18T05:57:39.984Z,3.37
2018-09-18T06:00:09.319Z,3.23
2018-09-18T06:02:37.994Z,3.60
2018-09-18T06:05:06.192Z,3.47
2018-09-18T06:07:34.346Z,3.00
2018-09-18T06:10:02.725Z,2.90
2018-09-18T06:12:31.143Z,2.83
2018-09-18T06:14:59.547Z,3.10
2018-09-18T06:17:27.844Z,2.93
2018-09-18T06:20:46.384Z,3.17
2018-09-18T06:23:14.764Z,3.20
2018-09-18T06:25:42.862Z,2.83
2018-09-18T06:28:11.015Z,2.97
2018-09-18T06:30:39.174Z,3.43
2018-09-18T06:33:11.376Z,2.70
2018-09-18T06:35:39.511Z,3.00
2018-09-18T06:38:07.741Z,3.60
2018-09-18T06:40:35.957Z,2.80
2018-09-18T06:43:04.075Z,2.70
2018-09-18T06:45:32.235Z,2.80
2018-09-18T06:48:00.321Z,2.73
2018-09-18T06:50:28.362Z,2.50
2018-09-18T06:52:56.450Z,2.80
2018-09-18T06:55:24.563Z,2.80
2018-09-18T06:57:52.643Z,2.60
2018-09-18T07:00:20.764Z,2.52
2018-09-18T07:02:48.818Z,2.93
2018-09-18T07:05:16.990Z,2.63
2018-09-18T07:07:45.098Z,2.37
2018-09-18T07:10:13.199Z,2.23
2018-09-18T07:12:41.270Z,2.77
2018-09-18T07:15:09.337Z,2.90
2018-09-18T07:17:37.417Z,2.30
2018-09-18T07:20:05.686Z,2.50
2018-09-18T07:22:33.766Z,2.73
2018-09-18T07:25:01.948Z,4.53
2018-09-18T07:27:30.002Z,2.43
2018-09-18T07:29:58.052Z,2.07
2018-09-18T07:32:26.226Z,2.47
2018-09-18T07:34:54.362Z,2.13
2018-09-18T07:37:22.451Z,2.30
2018-09-18T07:39:50.552Z,2.07
2018-09-18T07:45:39.771Z,2.30
2018-09-18T07:48:07.842Z,2.10
2018-09-18T07:50:36.029Z,2.03
2018-09-18T07:53:04.048Z,2.00
2018-09-18T07:55:32.129Z,2.23
2018-09-18T07:58:00.197Z,2.07
2018-09-18T08:00:28.263Z,2.13
2018-09-18T08:02:56.359Z,2.33
2018-09-18T08:05:24.453Z,2.43
2018-09-18T08:07:52.571Z,2.47
2018-09-18T08:10:20.638Z,1.90
2018-09-18T08:12:48.754Z,2.13
2018-09-18T08:15:16.837Z,2.00
2018-09-18T08:17:44.913Z,2.23
2018-09-18T08:20:12.997Z,2.00
2018-09-18T08:22:41.115Z,2.20
2018-09-18T08:25:09.210Z,2.20
2018-09-18T08:27:37.342Z,2.47
2018-09-18T08:30:05.470Z,1.90
2018-09-18T08:32:33.570Z,2.40
2018-09-18T08:35:01.662Z,2.23
2018-09-18T08:37:30.075Z,2.00
2018-09-18T08:39:58.324Z,2.20
2018-09-18T08:42:26.301Z,2.00
2018-09-18T08:44:54.405Z,2.07
2018-09-18T08:47:22.474Z,2.37
2018-09-18T08:49:50.681Z,2.67
2018-09-18T08:52:18.790Z,2.20
2018-09-18T08:54:46.862Z,2.10
2018-09-18T08:57:14.951Z,2.33
2018-09-18T08:59:43.110Z,2.30
2018-09-18T09:02:11.226Z,2.27
2018-09-18T09:04:39.342Z,2.37
2018-09-18T09:07:07.455Z,2.43
2018-09-18T09:09:35.625Z,2.40
2018-09-18T09:12:03.742Z,2.47
2018-09-18T09:14:31.833Z,2.20
2018-09-18T09:17:00.030Z,2.23
2018-09-18T09:19:28.246Z,2.07
2018-09-18T09:21:56.449Z,2.37
2018-09-18T09:24:24.605Z,2.23
2018-09-18T09:26:52.711Z,2.00
2018-09-18T09:29:20.763Z,2.10
2018-09-18T09:31:48.853Z,2.37
2018-09-18T09:34:17.815Z,2.03
2018-09-18T09:36:45.933Z,2.53
2018-09-18T09:39:14.007Z,2.00
2018-09-18T09:41:42.081Z,2.30
2018-09-18T09:44:10.146Z,2.10
2018-09-18T09:46:38.247Z,2.17
2018-09-18T09:49:06.366Z,1.87
2018-09-18T09:51:34.546Z,1.80
2018-09-18T09:54:02.670Z,2.30
2018-09-18T09:56:30.805Z,1.60
2018-09-18T09:58:58.918Z,1.83
2018-09-18T10:01:32.501Z,2.30
2018-09-18T10:04:00.579Z,1.90
2018-09-18T10:06:28.694Z,2.23
2018-09-18T10:08:56.804Z,2.20
2018-09-18T10:11:24.980Z,1.97
2018-09-18T10:13:53.070Z,1.93
2018-09-18T10:16:21.139Z,1.90
2018-09-18T10:18:49.262Z,2.20
2018-09-18T10:21:17.335Z,1.80
2018-09-18T10:23:45.506Z,1.80
2018-09-18T10:26:13.636Z,1.90
2018-09-18T10:28:41.740Z,2.07
2018-09-18T10:31:09.839Z,2.30
2018-09-18T10:33:37.936Z,2.03
2018-09-18T10:36:06.094Z,1.60
2018-09-18T10:38:34.217Z,1.80
2018-09-18T10:41:02.821Z,2.00
2018-09-18T10:43:30.872Z,1.97
2018-09-18T10:45:59.084Z,2.27
2018-09-18T10:48:27.202Z,1.90
2018-09-18T10:50:55.286Z,1.90
2018-09-18T10:53:23.378Z,1.60
2018-09-18T10:55:51.461Z,2.10
2018-09-18T10:58:19.516Z,1.60
2018-09-18T11:00:47.634Z,1.77
2018-09-18T11:03:15.759Z,2.03
2018-09-18T11:05:43.826Z,1.90
2018-09-18T11:08:12.007Z,1.97
2018-09-18T11:10:40.072Z,1.83
2018-09-18T11:13:08.136Z,1.80
2018-09-18T11:15:36.285Z,2.00
2018-09-18T11:18:04.362Z,1.80
2018-09-18T11:20:32.378Z,1.77
2018-09-18T11:23:00.510Z,1.87
2018-09-18T11:25:28.622Z,1.70
2018-09-18T11:27:56.707Z,1.73
2018-09-18T11:30:24.789Z,1.63
2018-09-18T11:32:52.905Z,2.00
2018-09-18T11:35:20.962Z,2.00
2018-09-18T11:37:49.127Z,1.50
2018-09-18T11:40:17.234Z,1.70
2018-09-18T11:42:45.366Z,1.83
2018-09-18T11:45:13.471Z,1.83
2018-09-18T11:47:41.611Z,1.80
2018-09-18T11:50:09.978Z,1.60
2018-09-18T11:52:38.111Z,1.93
2018-09-18T11:55:06.262Z,1.60
2018-09-18T11:57:34.905Z,1.70
2018-09-18T12:00:03.152Z,1.80
2018-09-18T12:02:31.301Z,1.83
2018-09-18T12:04:59.372Z,1.73
2018-09-18T12:07:27.453Z,1.73
2018-09-18T12:09:55.979Z,1.73
2018-09-18T12:12:24.116Z,1.77
2018-09-18T12:14:52.274Z,1.77
2018-09-18T12:17:20.350Z,1.60
2018-09-18T12:19:48.444Z,1.77
2018-09-18T12:22:16.574Z,1.80
2018-09-18T12:24:44.578Z,1.80
2018-09-18T12:27:12.714Z,1.30
2018-09-18T12:29:41.396Z,1.47
2018-09-18T12:32:09.940Z,1.60
2018-09-18T12:34:38.202Z,1.83
2018-09-18T12:37:06.346Z,1.50
2018-09-18T12:39:34.442Z,1.43
2018-09-18T12:42:02.697Z,1.57
2018-09-18T12:44:30.644Z,1.37
2018-09-18T12:46:58.720Z,1.67
2018-09-18T12:49:27.075Z,1.43
2018-09-18T12:51:55.094Z,1.60
2018-09-18T12:54:23.243Z,1.97
2018-09-18T12:56:51.383Z,1.40
2018-09-18T12:59:19.531Z,1.60
2018-09-18T13:01:47.566Z,1.80
2018-09-18T13:04:15.637Z,1.73
2018-09-18T13:06:43.747Z,1.60
2018-09-18T13:09:13.148Z,1.40
2018-09-18T13:11:41.214Z,1.80
2018-09-18T13:14:09.672Z,1.90
2018-09-18T13:16:38.005Z,1.80
2018-09-18T13:19:06.166Z,2.00
2018-09-18T13:21:34.279Z,2.13
2018-09-18T13:24:02.375Z,1.80
2018-09-18T13:26:30.523Z,1.70
2018-09-18T13:28:58.633Z,1.77
2018-09-18T13:31:26.878Z,1.83
2018-09-18T13:33:55.090Z,1.60
2018-09-18T13:36:23.156Z,1.60
2018-09-18T13:38:51.316Z,2.20
2018-09-18T13:41:19.493Z,1.70
2018-09-18T13:43:47.497Z,1.40
2018-09-18T13:46:15.727Z,1.67
2018-09-18T13:48:43.810Z,1.73
2018-09-18T13:51:12.203Z,1.60
2018-09-18T13:53:40.313Z,1.90
2018-09-18T13:56:08.508Z,1.43
2018-09-18T13:58:36.532Z,1.43
2018-09-18T14:01:04.644Z,1.70
2018-09-18T14:03:32.731Z,1.50
2018-09-18T14:06:00.829Z,1.87
2018-09-18T14:08:28.886Z,1.93
2018-09-18T14:10:56.968Z,1.90
2018-09-18T14:13:25.114Z,1.83
2018-09-18T14:15:53.210Z,1.70
2018-09-18T14:18:21.316Z,1.73
2018-09-18T14:20:49.455Z,1.87
2018-09-18T14:23:17.574Z,2.17
2018-09-18T14:25:45.788Z,2.03
2018-09-18T14:28:13.938Z,1.53
2018-09-18T14:30:42.083Z,2.00
2018-09-18T14:33:10.230Z,2.13
2018-09-18T14:35:38.422Z,1.77
2018-09-18T14:38:06.575Z,1.60
2018-09-18T14:40:34.820Z,2.10
2018-09-18T14:43:02.744Z,2.17
2018-09-18T14:45:30.878Z,1.67
2018-09-18T14:47:59.030Z,1.60
2018-09-18T14:50:27.136Z,1.83
2018-09-18T14:52:55.262Z,2.00
2018-09-18T14:55:23.356Z,2.07
2018-09-18T14:57:51.746Z,1.70
2018-09-18T15:00:19.980Z,1.60
2018-09-18T15:02:48.022Z,1.97
2018-09-18T15:05:16.128Z,2.10
2018-09-18T15:07:45.642Z,2.00
2018-09-18T15:10:13.740Z,2.40
2018-09-18T15:12:41.985Z,1.60
2018-09-18T15:15:10.095Z,1.93
2018-09-18T15:17:38.198Z,2.67
2018-09-18T15:20:06.304Z,1.90
2018-09-18T15:22:35.658Z,2.13
2018-09-18T15:25:04.002Z,1.83
2018-09-18T15:27:32.083Z,1.77
2018-09-18T15:30:00.203Z,1.93
2018-09-18T15:32:28.363Z,1.90
2018-09-18T15:34:56.574Z,1.80
2018-09-18T15:37:24.685Z,2.20
2018-09-18T15:39:52.767Z,2.10
2018-09-18T15:42:20.935Z,1.63
2018-09-18T15:44:49.140Z,1.90
2018-09-18T15:47:17.268Z,2.30
2018-09-18T15:49:45.369Z,2.13
2018-09-18T15:52:13.755Z,1.87
2018-09-18T15:54:41.874Z,2.00
2018-09-18T15:57:10.022Z,1.60
2018-09-18T15:59:38.156Z,1.57
2018-09-18T16:02:06.282Z,1.83
2018-09-18T16:04:34.465Z,2.10
2018-09-18T16:07:02.661Z,2.10
2018-09-18T16:09:30.792Z,2.53
2018-09-18T16:11:58.904Z,2.53
2018-09-18T16:14:27.597Z,2.43
2018-09-18T16:16:55.701Z,2.43
2018-09-18T16:19:23.980Z,2.93
2018-09-18T16:21:52.434Z,2.83
2018-09-18T16:24:20.535Z,2.63
2018-09-18T16:26:48.648Z,2.67
2018-09-18T16:29:16.969Z,2.10
2018-09-18T16:31:45.092Z,2.20
2018-09-18T16:34:13.173Z,2.20
2018-09-18T16:36:41.509Z,2.67
2018-09-18T16:39:09.575Z,2.20
2018-09-18T16:41:37.711Z,2.57
2018-09-18T16:44:06.171Z,2.50
2018-09-18T16:46:34.286Z,2.27
2018-09-18T16:49:03.566Z,2.50
2018-09-18T16:51:31.873Z,3.50
2018-09-18T16:53:59.999Z,2.13
2018-09-18T16:56:28.132Z,2.53
2018-09-18T16:58:56.276Z,2.07
2018-09-18T17:01:24.412Z,2.40
2018-09-18T17:03:52.538Z,2.20
2018-09-18T17:06:20.733Z,2.07
2018-09-18T17:08:48.823Z,2.43
2018-09-18T17:11:16.932Z,2.10
2018-09-18T17:13:45.241Z,2.43
2018-09-18T17:16:13.408Z,2.77
2018-09-18T17:18:41.581Z,2.40
2018-09-18T17:21:09.606Z,3.27
2018-09-18T17:23:37.714Z,2.43
2018-09-18T17:26:05.927Z,2.30
2018-09-18T17:28:34.111Z,2.90
2018-09-18T17:44:20.748Z,2.63
2018-09-18T17:46:48.897Z,2.50
2018-09-18T17:49:16.969Z,2.70
2018-09-18T17:51:46.190Z,2.20
2018-09-18T17:54:14.320Z,2.70
2018-09-18T17:56:42.733Z,3.00
2018-09-18T17:59:10.915Z,2.70
2018-09-18T18:01:39.036Z,2.93
2018-09-18T18:04:07.163Z,3.47
2018-09-18T18:06:35.235Z,2.73
2018-09-18T18:09:04.304Z,2.53
2018-09-18T18:11:32.416Z,2.80
2018-09-18T18:14:00.481Z,2.87
2018-09-18T18:16:30.182Z,2.83
2018-09-18T18:18:58.323Z,2.63
2018-09-18T18:21:27.105Z,2.60
2018-09-18T18:23:55.250Z,3.83
2018-09-18T18:26:23.420Z,3.10
2018-09-18T18:28:51.473Z,3.33
2018-09-18T18:31:19.808Z,3.00
2018-09-18T18:33:47.899Z,2.90
2018-09-18T18:36:16.128Z,3.43
2018-09-18T18:38:44.412Z,2.50
2018-09-18T18:41:12.557Z,2.27
2018-09-18T18:43:40.759Z,2.30
2018-09-18T18:46:08.888Z,2.90
2018-09-18T18:48:37.216Z,2.10
2018-09-18T18:51:05.250Z,2.70
2018-09-18T18:53:33.352Z,2.17
2018-09-18T18:56:01.806Z,2.90
2018-09-18T18:58:29.971Z,2.70
2018-09-18T19:00:58.414Z,2.93
2018-09-18T19:03:26.654Z,2.00
2018-09-18T19:05:54.890Z,2.73
2018-09-18T19:08:23.032Z,3.00
2018-09-18T19:10:51.486Z,3.10
2018-09-18T19:13:19.836Z,2.63
2018-09-18T19:15:48.007Z,3.60
2018-09-18T19:18:16.151Z,2.70
2018-09-18T19:20:44.369Z,2.80
2018-09-18T19:23:12.448Z,3.17
2018-09-18T19:25:40.639Z,2.80
2018-09-18T19:28:08.828Z,3.60
2018-09-18T19:30:36.943Z,3.03
2018-09-18T19:33:05.102Z,2.57
2018-09-18T19:35:33.167Z,2.93
2018-09-18T19:38:01.337Z,3.10
2018-09-18T19:40:29.455Z,2.37
2018-09-18T19:42:58.416Z,2.90
2018-09-18T19:45:26.840Z,2.47
2018-09-18T19:47:54.958Z,2.50
2018-09-18T19:50:23.098Z,3.03
2018-09-18T19:52:51.611Z,2.73
2018-09-18T19:55:19.677Z,2.87
2018-09-18T19:57:47.778Z,2.90
2018-09-18T20:00:15.908Z,2.20
2018-09-18T20:02:44.030Z,3.10
2018-09-18T20:05:12.441Z,2.60
2018-09-18T20:07:40.543Z,2.57
2018-09-18T20:10:08.619Z,3.47
2018-09-18T20:12:36.778Z,1.83
2018-09-18T20:15:04.930Z,2.80
2018-09-18T20:17:32.999Z,2.30
2018-09-18T20:20:01.088Z,2.23
2018-09-18T20:22:29.180Z,2.07
2018-09-18T20:24:59.899Z,2.20
2018-09-18T20:27:27.993Z,1.80
2018-09-18T20:29:56.058Z,1.90
2018-09-18T20:32:24.174Z,1.80
2018-09-18T20:34:52.290Z,2.47
2018-09-18T20:37:20.429Z,1.83
2018-09-18T20:39:48.486Z,1.97
2018-09-18T20:42:16.598Z,1.97
2018-09-18T20:44:44.666Z,1.90
2018-09-18T20:47:12.811Z,2.07
2018-09-18T20:49:41.046Z,1.93
2018-09-18T20:52:09.158Z,1.87
2018-09-18T20:54:37.222Z,2.17
2018-09-18T20:57:05.314Z,1.70
2018-09-18T20:59:33.401Z,2.10
2018-09-18T21:02:01.568Z,2.50
2018-09-18T21:04:29.568Z,1.53
2018-09-18T21:06:57.715Z,1.73
2018-09-18T21:09:25.854Z,2.10
2018-09-18T21:11:54.176Z,1.63
2018-09-18T21:14:22.276Z,1.77
2018-09-18T21:16:50.406Z,1.40
2018-09-18T21:19:18.638Z,1.70
2018-09-18T21:21:46.714Z,1.90
2018-09-18T21:24:14.826Z,1.47
2018-09-18T21:26:43.007Z,1.50
2018-09-18T21:29:11.511Z,2.00
2018-09-18T21:31:39.701Z,1.30
2018-09-18T21:34:07.921Z,1.80
2018-09-18T21:36:36.141Z,1.70
2018-09-18T21:39:07.197Z,1.50
2018-09-18T21:41:35.327Z,1.40
2018-09-18T21:44:03.482Z,1.77
2018-09-18T21:46:31.675Z,1.67
2018-09-18T21:48:59.776Z,1.70
2018-09-18T21:51:27.909Z,1.23
2018-09-18T21:53:56.024Z,1.77
2018-09-18T21:56:24.161Z,1.50
2018-09-18T21:58:52.268Z,1.90
2018-09-18T22:01:20.452Z,1.87
2018-09-18T22:03:48.542Z,1.90
2018-09-18T22:06:16.982Z,1.80
2018-09-18T22:08:45.203Z,1.53
2018-09-18T22:11:13.373Z,1.57
2018-09-18T22:13:41.884Z,1.70
2018-09-18T22:16:10.206Z,1.47
2018-09-18T22:18:38.560Z,1.13
2018-09-18T22:21:06.741Z,1.30
2018-09-18T22:23:35.131Z,1.60
2018-09-18T22:26:03.339Z,1.67
2018-09-18T22:28:32.047Z,1.13
2018-09-18T22:31:00.270Z,1.17
2018-09-18T22:33:28.548Z,1.40
2018-09-18T22:35:56.619Z,1.30
2018-09-18T22:38:24.770Z,0.87
2018-09-18T22:40:52.929Z,1.30
2018-09-18T22:43:21.074Z,1.40
2018-09-18T22:45:49.282Z,1.47
2018-09-18T22:48:17.373Z,1.87
2018-09-18T22:50:45.447Z,1.30
2018-09-18T22:53:13.588Z,1.20
2018-09-18T22:55:41.740Z,1.87
2018-09-18T22:58:09.812Z,1.23
2018-09-18T23:00:37.969Z,1.50
2018-09-18T23:03:06.106Z,1.43
2018-09-18T23:05:34.164Z,1.40
2018-09-18T23:08:02.256Z,1.37
2018-09-18T23:10:30.371Z,0.97
2018-09-18T23:12:58.462Z,1.40
2018-09-18T23:15:26.599Z,1.20
2018-09-18T23:17:54.688Z,1.13
2018-09-18T23:20:22.775Z,1.37
2018-09-18T23:22:50.879Z,1.27
2018-09-18T23:25:19.016Z,1.53
2018-09-18T23:27:47.087Z,1.13
2018-09-18T23:30:15.178Z,1.40
2018-09-18T23:32:43.272Z,1.10
2018-09-18T23:35:11.342Z,1.30
2018-09-18T23:37:39.454Z,1.33
2018-09-18T23:40:07.629Z,0.97
2018-09-18T23:42:35.750Z,1.87
2018-09-18T23:45:03.926Z,1.27
2018-09-18T23:47:32.019Z,1.30
2018-09-18T23:50:00.419Z,2.00
2018-09-18T23:52:28.469Z,1.40
2018-09-18T23:54:56.620Z,1.20
2018-09-18T23:57:24.793Z,1.30
2018-09-18T23:59:52.879Z,1.00
